Airfield :
LOGIN :

Register | Disclaimer

   EN    FR    IT 

 










Legend :    VFR   Marginal VFR   IFR   Intensive IFR   Very Intensive IFR
Visi :
Ceiling :
>= 8 km
>= 3000ft
5 to 8 km
1000 to 3000 ft
1500m to 5 km
500 to 1000 ft
800 to 1500m
200 to 500 ft
< 800m
< 200 ft
Symbols :   Thunderstorms  Fog  Heavy snow  Heavy precipitations  Wind > 20 kt
SIGMETs :     Misc.  Thunderstorms  Icing  Turbulence  Mountain Waves  Volcanic Ashes






- Airport Elevation : 49 ft
- IATA code : SEN


EGMC - Southend

CURRENT METAR :
  • 021420Z 02003KT 7000 SCT011 08/05 Q1029

EXPIRED METARs :
  • 021350Z VRB03KT 7000 BKN010 08/05 Q1029
  • 021320Z 36004KT 280V050 6000 BKN010 07/05 Q1029
  • 021250Z 04004KT 330V100 6000 BKN009 07/05 Q1030
  • 021220Z 03005KT 360V060 6000 BKN008 07/05 Q1030
  • 021150Z 03005KT 350V060 5000 BR BKN008 06/05 Q1030
  • 021120Z 03005KT 350V070 5000 BR BKN007 06/05 Q1030

TAF TAF EGMC
Valid from the 02 at 12:00 until the 02 at 21:00 UTC


021058Z 0212/0221 03005KT 3000 BR BKN005
BECMG 0212/0215 9999 NSW SCT010
PROB30
TEMPO 0215/0218 8000
PROB30 0218/0221 4000 BR



MET'MAP, your aeronautical weather chart ! - Copyright ORBIFLY December 2007 - Disclaimer

ORBIFLY MET'MAP TEAM :

Programming & Development : Alexandra Zaïnal
Concept & original design : Baudouin d'Aumeries
Assistance for programming : Marc-Olivier Méhu
Technical & hardware support : Manuel Goepfert

Contact : metmap@orbifly.com




SOURCES & CREDITS :

   NOAA